createdAt,value
2019-04-22T00:02:28.505Z,24.87
2019-04-22T00:05:11.479Z,26.43
2019-04-22T00:07:56.717Z,24.93
2019-04-22T00:10:34.151Z,25.80
2019-04-22T00:13:00.094Z,23.70
2019-04-22T00:15:27.932Z,22.17
2019-04-22T00:18:22.362Z,24.43
2019-04-22T00:20:58.221Z,23.10
2019-04-22T00:23:24.515Z,20.60
2019-04-22T00:26:03.408Z,21.43
2019-04-22T00:28:30.570Z,20.83
2019-04-22T00:31:16.921Z,21.57
2019-04-22T00:33:38.623Z,20.40
2019-04-22T00:36:16.594Z,21.10
2019-04-22T00:38:55.834Z,22.33
2019-04-22T00:41:21.459Z,23.87
2019-04-22T00:43:59.042Z,22.20
2019-04-22T00:46:29.253Z,25.17
2019-04-22T00:49:46.028Z,25.30
2019-04-22T00:51:29.045Z,28.50
2019-04-22T00:53:54.565Z,25.67
2019-04-22T00:56:28.233Z,28.53
2019-04-22T00:58:59.032Z,27.83
2019-04-22T01:01:31.107Z,29.73
2019-04-22T01:06:33.330Z,25.43
2019-04-22T01:09:27.198Z,26.80
2019-04-22T01:11:38.854Z,24.60
2019-04-22T01:14:20.343Z,26.67
2019-04-22T01:16:48.527Z,26.03
2019-04-22T01:19:16.688Z,25.97
2019-04-22T01:21:45.078Z,26.93
2019-04-22T01:24:17.545Z,26.80
2019-04-22T01:26:43.644Z,25.23
2019-04-22T01:32:52.082Z,29.47
2019-04-22T01:35:34.847Z,29.63
2019-04-22T01:38:08.943Z,29.07
2019-04-22T01:40:58.615Z,26.40
2019-04-22T01:43:25.100Z,25.63
2019-04-22T01:45:53.319Z,27.67
2019-04-22T01:48:26.819Z,27.57
2019-04-22T01:50:50.006Z,22.87
2019-04-22T01:53:27.390Z,26.37
2019-04-22T01:55:59.047Z,25.03
2019-04-22T01:58:24.889Z,24.20
2019-04-22T02:01:02.661Z,25.23
2019-04-22T02:03:34.705Z,21.90
2019-04-22T02:06:05.844Z,25.80
2019-04-22T02:08:45.454Z,24.03
2019-04-22T02:11:08.143Z,23.73
2019-04-22T02:13:36.658Z,24.33
2019-04-22T02:16:12.554Z,22.47
2019-04-22T02:18:44.831Z,20.97
2019-04-22T02:24:07.005Z,22.97
2019-04-22T02:26:46.441Z,22.80
2019-04-22T02:29:07.886Z,21.07
2019-04-22T02:31:44.184Z,24.10
2019-04-22T02:34:21.739Z,22.33
2019-04-22T02:36:54.766Z,24.40
2019-04-22T02:42:09.463Z,27.10
2019-04-22T02:44:26.398Z,31.40
2019-04-22T02:47:06.966Z,29.77
2019-04-22T02:49:25.303Z,33.67
2019-04-22T02:51:43.507Z,30.10
2019-04-22T02:54:40.718Z,31.57
2019-04-22T02:56:56.036Z,32.77
2019-04-22T02:59:25.895Z,33.63
2019-04-22T03:01:53.226Z,31.73
2019-04-22T03:04:24.267Z,31.00
2019-04-22T03:06:52.379Z,29.37
2019-04-22T03:09:34.063Z,27.47
2019-04-22T03:14:33.806Z,26.13
2019-04-22T03:22:08.641Z,13.93
2019-04-22T03:27:14.113Z,10.63
2019-04-22T03:37:53.315Z,12.77
2019-04-22T03:47:57.720Z,13.83
2019-04-22T03:50:25.415Z,16.10
2019-04-22T03:53:03.963Z,13.23
2019-04-22T04:00:45.963Z,15.73
2019-04-22T04:05:49.667Z,15.90
2019-04-22T04:13:08.299Z,20.70
2019-04-22T04:15:46.256Z,19.97
2019-04-22T04:18:30.332Z,21.03
2019-04-22T04:20:44.766Z,22.27
2019-04-22T04:25:46.726Z,23.27
2019-04-22T04:30:57.357Z,22.63
2019-04-22T04:35:53.051Z,28.27
2019-04-22T04:38:25.571Z,27.90
2019-04-22T04:43:29.986Z,30.07
2019-04-22T04:46:03.932Z,29.07
2019-04-22T04:48:32.287Z,27.33
2019-04-22T04:53:24.927Z,29.63
2019-04-22T04:56:11.097Z,27.40
2019-04-22T05:01:23.309Z,29.23
2019-04-22T05:03:48.904Z,28.07
2019-04-22T05:09:03.833Z,29.90
2019-04-22T05:13:49.808Z,28.27
2019-04-22T05:16:25.588Z,27.13
2019-04-22T05:18:44.788Z,28.30
2019-04-22T05:21:12.278Z,27.33
2019-04-22T05:23:48.747Z,28.03
2019-04-22T05:26:22.644Z,26.27
2019-04-22T05:28:42.070Z,27.47
2019-04-22T05:31:15.808Z,26.43
2019-04-22T05:33:48.316Z,25.23
2019-04-22T05:36:23.520Z,24.40
2019-04-22T05:41:15.941Z,24.67
2019-04-22T05:43:54.446Z,24.53
2019-04-22T05:46:26.968Z,22.40
2019-04-22T05:48:53.903Z,24.90
2019-04-22T05:51:25.917Z,25.07
2019-04-22T05:53:59.532Z,25.20
2019-04-22T05:56:34.203Z,22.43
2019-04-22T06:01:45.130Z,21.37
2019-04-22T06:04:05.277Z,20.23
2019-04-22T06:06:34.143Z,20.70
2019-04-22T06:09:05.136Z,20.37
2019-04-22T06:11:32.179Z,18.23
2019-04-22T06:14:09.834Z,18.03
2019-04-22T06:16:44.399Z,17.57
2019-04-22T06:22:06.436Z,16.50
2019-04-22T06:24:21.561Z,15.70
2019-04-22T06:29:20.537Z,14.97
2019-04-22T06:37:05.342Z,15.40
2019-04-22T06:39:34.106Z,14.53
2019-04-22T06:42:01.125Z,14.23
2019-04-22T06:44:29.758Z,15.17
2019-04-22T06:46:56.390Z,16.33
2019-04-22T06:49:35.912Z,14.20
2019-04-22T06:52:07.741Z,16.80
2019-04-22T06:54:32.522Z,13.07
2019-04-22T06:57:19.674Z,14.30
2019-04-22T06:59:36.282Z,15.53
2019-04-22T07:02:10.096Z,13.70
2019-04-22T07:04:38.002Z,14.43
2019-04-22T07:07:12.254Z,14.30
2019-04-22T07:12:20.122Z,14.83
2019-04-22T07:14:48.772Z,15.73
2019-04-22T07:17:17.462Z,16.47
2019-04-22T07:19:45.009Z,14.80
2019-04-22T07:27:25.302Z,15.17
2019-04-22T07:29:57.647Z,18.10
2019-04-22T07:32:29.889Z,15.37
2019-04-22T07:34:52.879Z,17.57
2019-04-22T07:37:31.795Z,16.03
2019-04-22T07:39:50.128Z,17.00
2019-04-22T07:44:54.895Z,17.43
2019-04-22T07:47:35.895Z,15.87
2019-04-22T07:49:59.244Z,17.20
2019-04-22T07:57:32.837Z,12.30
2019-04-22T08:00:10.965Z,10.47
2019-04-22T08:02:44.155Z,12.23
2019-04-22T08:07:46.465Z,8.30
2019-04-22T08:12:47.416Z,8.37
2019-04-22T08:15:38.684Z,9.23
2019-04-22T08:18:15.136Z,11.30
2019-04-22T08:20:41.020Z,14.17
2019-04-22T08:25:42.621Z,9.47
2019-04-22T08:28:17.804Z,10.70
2019-04-22T08:30:47.727Z,9.23
2019-04-22T08:33:21.622Z,7.93
2019-04-22T08:36:10.844Z,5.90
2019-04-22T08:38:24.260Z,4.17
2019-04-22T08:41:23.579Z,5.00
2019-04-22T08:43:56.235Z,5.30
2019-04-22T08:46:25.278Z,3.53
2019-04-22T08:48:55.815Z,4.10
2019-04-22T08:51:25.381Z,3.77
2019-04-22T08:54:00.108Z,3.87
2019-04-22T08:59:01.793Z,4.73
2019-04-22T09:01:29.962Z,5.97
2019-04-22T09:04:01.915Z,5.30
2019-04-22T09:09:06.137Z,5.07
2019-04-22T09:14:11.298Z,7.00
2019-04-22T09:16:37.400Z,6.47
2019-04-22T09:19:22.781Z,4.20
2019-04-22T09:24:16.909Z,4.73
2019-04-22T09:26:47.661Z,5.13
2019-04-22T09:31:53.948Z,7.23
2019-04-22T09:34:22.501Z,5.53
2019-04-22T09:36:58.932Z,6.37
2019-04-22T09:39:21.766Z,5.90
2019-04-22T09:41:51.080Z,6.20
2019-04-22T09:44:34.625Z,6.60
2019-04-22T09:52:42.108Z,8.43
2019-04-22T09:55:24.381Z,7.80
2019-04-22T09:57:41.313Z,6.47
2019-04-22T10:00:28.668Z,6.67
2019-04-22T10:02:48.946Z,8.53
2019-04-22T10:05:20.613Z,7.10
2019-04-22T10:07:44.875Z,9.63
2019-04-22T10:10:36.595Z,8.17
2019-04-22T10:12:46.624Z,6.53
2019-04-22T10:15:19.528Z,7.17
2019-04-22T10:18:09.732Z,7.03
2019-04-22T10:20:28.110Z,7.27
2019-04-22T10:23:03.318Z,7.30
2019-04-22T10:25:27.992Z,7.53
2019-04-22T10:28:01.600Z,7.37
2019-04-22T10:30:38.380Z,7.00
2019-04-22T10:33:01.161Z,7.60
2019-04-22T10:35:17.090Z,6.20
2019-04-22T10:37:44.379Z,3.93
2019-04-22T10:40:32.475Z,3.80
2019-04-22T10:43:03.204Z,4.63
2019-04-22T10:45:32.647Z,4.07
2019-04-22T10:48:01.952Z,3.73
2019-04-22T10:50:46.594Z,3.53
2019-04-22T10:53:17.762Z,4.10
2019-04-22T10:55:49.798Z,5.33
2019-04-22T10:58:20.879Z,3.80
2019-04-22T11:00:54.729Z,3.67
2019-04-22T11:03:28.366Z,4.50
2019-04-22T11:06:19.123Z,4.10
2019-04-22T11:08:55.493Z,3.83
2019-04-22T11:11:32.303Z,3.57
2019-04-22T11:13:53.950Z,4.27
2019-04-22T11:16:47.742Z,5.93
2019-04-22T11:19:17.373Z,4.40
2019-04-22T11:22:00.942Z,4.70
2019-04-22T11:24:18.840Z,5.00
2019-04-22T11:26:49.324Z,4.77
2019-04-22T11:29:19.582Z,5.40
2019-04-22T11:35:23.694Z,6.43
2019-04-22T11:37:54.998Z,5.60
2019-04-22T11:40:58.175Z,7.03
2019-04-22T11:43:28.502Z,5.50
2019-04-22T11:55:40.421Z,4.43
2019-04-22T11:58:12.823Z,6.10
2019-04-22T12:01:37.190Z,5.23
2019-04-22T12:04:07.991Z,5.30
2019-04-22T12:13:42.251Z,5.03
2019-04-22T12:16:11.698Z,6.70
2019-04-22T12:18:41.104Z,6.50
2019-04-22T12:21:13.170Z,6.60
2019-04-22T12:23:43.399Z,6.57
2019-04-22T12:26:16.488Z,6.50
2019-04-22T12:28:45.016Z,6.33
2019-04-22T12:31:15.564Z,6.30
2019-04-22T12:59:27.961Z,4.20
2019-04-22T13:01:58.678Z,4.53
2019-04-22T13:04:28.265Z,4.30
2019-04-22T13:06:57.733Z,5.10
2019-04-22T13:23:46.556Z,6.23
2019-04-22T13:26:16.934Z,8.33
2019-04-22T13:28:47.287Z,5.93
2019-04-22T13:31:20.408Z,5.40
2019-04-22T13:33:51.286Z,6.17
2019-04-22T13:36:21.860Z,7.73
2019-04-22T13:38:51.282Z,8.13
2019-04-22T13:41:31.711Z,10.43
2019-04-22T13:43:53.862Z,8.73
2019-04-22T13:56:49.193Z,6.00
2019-04-22T13:59:10.239Z,5.70
2019-04-22T14:01:44.210Z,5.57
2019-04-22T14:04:28.394Z,5.60
2019-04-22T14:06:58.746Z,6.27
2019-04-22T14:09:28.385Z,7.73
2019-04-22T14:12:03.362Z,7.20
2019-04-22T14:14:30.101Z,6.47
2019-04-22T14:17:00.723Z,6.93
2019-04-22T14:19:31.989Z,8.03
2019-04-22T14:22:01.974Z,8.13
2019-04-22T14:24:31.605Z,10.27
2019-04-22T14:27:19.571Z,10.03
2019-04-22T14:29:51.546Z,10.40
2019-04-22T14:32:27.028Z,13.60
2019-04-22T14:34:55.357Z,10.93
2019-04-22T14:37:24.673Z,10.37
2019-04-22T14:39:54.061Z,9.77
2019-04-22T14:42:56.857Z,9.43
2019-04-22T14:45:42.616Z,8.57
2019-04-22T14:51:31.901Z,7.80
2019-04-22T14:54:06.618Z,8.43
2019-04-22T14:56:20.168Z,7.83
2019-04-22T14:58:50.865Z,7.97
2019-04-22T15:01:21.127Z,8.80
2019-04-22T15:03:50.740Z,7.90
2019-04-22T15:06:22.294Z,8.37
2019-04-22T15:08:56.177Z,7.90
2019-04-22T15:11:24.298Z,11.67
2019-04-22T15:13:53.691Z,7.43
2019-04-22T15:16:38.393Z,6.83
2019-04-22T15:19:22.112Z,7.33
2019-04-22T15:21:52.527Z,7.57
2019-04-22T15:24:27.401Z,7.10
2019-04-22T15:26:58.562Z,6.97
2019-04-22T15:29:29.670Z,7.70
2019-04-22T15:31:59.916Z,8.30
2019-04-22T15:34:30.548Z,7.67
2019-04-22T15:37:02.342Z,7.30
2019-04-22T15:39:31.992Z,7.83
2019-04-22T15:42:11.717Z,8.57
2019-04-22T15:44:33.848Z,8.00
2019-04-22T15:47:04.866Z,8.50
2019-04-22T15:49:35.740Z,9.97
2019-04-22T15:52:06.635Z,6.07
2019-04-22T15:54:37.643Z,9.67
2019-04-22T15:57:08.691Z,12.90
2019-04-22T15:59:53.740Z,10.63
2019-04-22T16:02:10.136Z,14.27
2019-04-22T16:04:41.136Z,11.93
2019-04-22T16:07:12.612Z,12.37
2019-04-22T16:09:43.427Z,10.67
2019-04-22T16:12:20.011Z,12.80
2019-04-22T16:14:51.343Z,9.10
2019-04-22T16:17:18.798Z,7.63
2019-04-22T16:19:50.858Z,8.60
2019-04-22T16:22:21.769Z,6.23
2019-04-22T16:25:15.464Z,6.57
2019-04-22T16:27:44.837Z,6.87
2019-04-22T16:30:15.138Z,7.00
2019-04-22T16:32:45.446Z,7.20
2019-04-22T16:35:15.107Z,8.93
2019-04-22T16:37:44.444Z,7.00
2019-04-22T16:40:14.717Z,7.13
2019-04-22T16:42:51.509Z,7.00
2019-04-22T16:45:15.703Z,7.27
2019-04-22T16:47:45.856Z,7.03
2019-04-22T16:50:15.991Z,7.73
2019-04-22T16:52:46.008Z,7.47
2019-04-22T16:58:10.922Z,7.77
2019-04-22T17:00:40.727Z,8.40
2019-04-22T17:03:28.918Z,8.13
2019-04-22T17:06:17.175Z,8.80
2019-04-22T17:08:46.984Z,10.23
2019-04-22T17:11:17.841Z,12.83
2019-04-22T17:13:48.106Z,13.53
2019-04-22T17:16:20.074Z,12.87
2019-04-22T17:18:50.070Z,12.33
2019-04-22T17:21:19.749Z,10.60
2019-04-22T17:23:49.884Z,9.87
2019-04-22T17:26:20.617Z,9.33
2019-04-22T17:28:51.348Z,8.60
2019-04-22T17:31:22.832Z,8.47
2019-04-22T17:33:52.992Z,8.53
2019-04-22T17:36:22.702Z,9.90
2019-04-22T17:39:00.823Z,10.53
2019-04-22T17:41:41.804Z,9.27
2019-04-22T17:51:00.027Z,8.83
2019-04-22T17:53:33.349Z,8.83
2019-04-22T17:56:37.820Z,8.60
2019-04-22T17:59:09.631Z,8.90
2019-04-22T18:01:51.543Z,9.20
2019-04-22T18:04:04.844Z,9.40
2019-04-22T18:10:49.113Z,7.90
2019-04-22T18:16:52.043Z,9.30
2019-04-22T18:19:21.227Z,14.30
2019-04-22T18:21:47.592Z,10.47
2019-04-22T18:24:32.428Z,7.73
2019-04-22T18:27:30.472Z,8.50
2019-04-22T18:29:48.439Z,6.90
2019-04-22T18:32:16.794Z,7.23
2019-04-22T18:41:51.887Z,10.07
2019-04-22T19:08:12.420Z,8.77
2019-04-22T19:23:04.175Z,8.07
2019-04-22T19:25:29.376Z,6.60
2019-04-22T19:28:18.956Z,8.23
2019-04-22T19:30:43.040Z,7.33
2019-04-22T19:33:10.956Z,9.17
2019-04-22T19:35:40.232Z,7.77
2019-04-22T19:38:10.973Z,7.97
2019-04-22T19:41:05.031Z,6.87
2019-04-22T19:43:22.895Z,8.70
2019-04-22T19:45:53.687Z,7.50
2019-04-22T19:48:35.971Z,8.40
2019-04-22T19:51:02.638Z,7.03
2019-04-22T19:53:29.760Z,7.90
2019-04-22T19:55:53.787Z,8.67
2019-04-22T19:58:28.077Z,9.30
2019-04-22T20:01:16.398Z,8.70
2019-04-22T20:04:37.723Z,8.60
2019-04-22T20:06:53.947Z,9.17
2019-04-22T20:09:30.065Z,8.20
2019-04-22T20:11:57.485Z,8.17
2019-04-22T20:14:29.830Z,7.70
2019-04-22T20:16:57.379Z,7.50
2019-04-22T20:19:44.303Z,9.13
2019-04-22T20:22:04.835Z,8.43
2019-04-22T20:24:21.710Z,9.63
2019-04-22T20:27:09.295Z,9.87
2019-04-22T20:29:54.066Z,9.47
2019-04-22T20:32:10.870Z,9.53
2019-04-22T20:34:46.018Z,6.70
2019-04-22T20:37:15.199Z,9.20
2019-04-22T20:39:45.672Z,7.80
2019-04-22T20:42:23.143Z,8.60
2019-04-22T20:44:46.180Z,6.60
2019-04-22T20:47:09.220Z,8.73
2019-04-22T20:49:48.752Z,7.30
2019-04-22T20:52:33.092Z,7.07
2019-04-22T20:54:44.624Z,6.43
2019-04-22T20:57:19.403Z,8.93
2019-04-22T20:59:48.181Z,8.70
2019-04-22T21:02:15.194Z,8.03
2019-04-22T21:04:43.158Z,6.63
2019-04-22T21:07:23.832Z,7.87
2019-04-22T21:09:55.215Z,9.17
2019-04-22T21:12:22.370Z,8.53
2019-04-22T21:15:06.483Z,6.53
2019-04-22T21:17:34.891Z,9.17
2019-04-22T21:20:10.088Z,6.33
2019-04-22T21:22:41.696Z,7.17
2019-04-22T21:25:03.579Z,7.60
2019-04-22T21:27:45.300Z,9.07
2019-04-22T21:30:03.382Z,7.10
2019-04-22T21:32:38.631Z,8.37
2019-04-22T21:35:21.598Z,6.27
2019-04-22T21:37:51.030Z,8.03
2019-04-22T21:40:17.823Z,5.80
2019-04-22T21:42:54.163Z,6.00
2019-04-22T21:45:14.610Z,7.03
2019-04-22T21:47:57.597Z,6.67
2019-04-22T21:50:36.390Z,7.67
2019-04-22T21:52:56.913Z,6.27
2019-04-22T21:55:23.688Z,5.67
2019-04-22T21:58:12.181Z,7.00
2019-04-22T22:01:06.517Z,7.93
2019-04-22T22:03:30.070Z,6.00
2019-04-22T22:05:47.228Z,5.53
2019-04-22T22:08:32.227Z,5.93
2019-04-22T22:10:57.969Z,7.27
2019-04-22T22:17:42.280Z,6.17
2019-04-22T22:20:09.880Z,7.47
2019-04-22T22:22:53.642Z,7.20
2019-04-22T22:25:20.156Z,8.37
2019-04-22T22:27:44.379Z,6.63
2019-04-22T22:30:38.820Z,5.80
2019-04-22T22:32:55.123Z,6.23
2019-04-22T22:35:23.391Z,7.23
2019-04-22T22:37:51.762Z,5.63
2019-04-22T22:40:10.832Z,7.33
2019-04-22T22:42:41.893Z,8.30
2019-04-22T22:45:20.001Z,6.20
2019-04-22T22:50:55.095Z,8.07
2019-04-22T22:55:53.158Z,7.90
2019-04-22T22:58:57.323Z,6.57
2019-04-22T23:01:31.770Z,5.90
2019-04-22T23:08:20.414Z,7.00
2019-04-22T23:10:55.519Z,7.00
2019-04-22T23:13:26.211Z,5.50
2019-04-22T23:15:48.462Z,10.00
2019-04-22T23:18:03.884Z,6.73
2019-04-22T23:20:39.505Z,6.23
2019-04-22T23:23:29.685Z,6.70
2019-04-22T23:26:02.654Z,6.20
2019-04-22T23:28:57.649Z,7.73
2019-04-22T23:34:32.788Z,6.13
2019-04-22T23:37:22.143Z,5.60
2019-04-22T23:40:13.379Z,8.40
2019-04-22T23:42:33.240Z,7.57
2019-04-22T23:46:02.320Z,6.97
2019-04-22T23:48:27.143Z,6.63
2019-04-22T23:51:08.924Z,5.73
2019-04-22T23:54:13.182Z,8.53
2019-04-22T23:56:39.116Z,7.47
2019-04-22T23:59:37.933Z,8.00
